Terminal Aerodrome Forecast
Issued by NWS

Home | Current Version | Previous Version | Text Only | Print | Product List | Glossary On
Versions: 1 2 3 4 5 6 7 8 9 10 11 12
531
FTUS44 KJAN 271151
TAFHKS
TAF
KHKS 271151Z 2712/2812 18007KT P6SM SCT025 BKN040
     FM271600 19013G19KT P6SM BKN025
     FM271900 20013G20KT P6SM VCTS SCT040CB
     FM272200 20011KT P6SM TSRA BKN050CB
     FM280700 19005KT P6SM VCSH OVC010=

USA.gov is the U.S. government's official web portal to all federal, state and local government web resources and services.